Aérodrome :
LOGIN :

S'inscrire | Disclaimer

   EN    FR    IT 

 










Légende :    VFR   VFR Marginal   IFR   IFR Intensif   IFR Très Intensif
Visi : 
Plafond : 
>= 8 km
>= 3000ft
5 à 8 km
1000 à 3000 ft
1500m à 5 km
500 à 1000 ft
800 à 1500m
200 à 500 ft
< 800m
< 200 ft
Symboles :   Orages  Brouillard  Fortes neiges  Fortes précipitations  Vent > 20 kt
SIGMETs :   Divers  Orages  Givrage  Turbulence  Onde Orograph.  Cendres Volcan.







- Altitude de l'aérodrome : 124 ft
- Code IATA : RNS
- Voir les cartes d'approche


LFRN - Rennes

DERNIER METAR :
  • 190500Z AUTO 00000KT 0250 0200 R28L/0300N R10R/0250N FG VV/// 04/04 Q1021 BECMG 2000 BR NSC

METARs EXPIRÉS :
  • 190430Z AUTO 00000KT 0350 0250 R28L/0375N R10R/0250N FG VV/// 04/04 Q1021 BECMG 2000 BR NSC
  • 190400Z AUTO 00000KT 0250 R28L/0325N R10R/0250N FG VV/// 03/03 Q1021 TEMPO 0400 FG
  • 190330Z AUTO 13001KT 0300 0250 R28L/0325U R10R/0225D FG VV/// 03/03 Q1021 TEMPO 0400 FG
  • 190300Z AUTO 00000KT 0500 0300 R28L/0650N R10R/0275N FG VV/// 03/03 Q1021 NOSIG
  • 190230Z AUTO 00000KT 0350 R28L/0600U R10R/0450D FG VV/// 04/04 Q1021 NOSIG

TAF TAF LFRN
Valide du 19 à 00h jusqu'au 20 à 00h UTC


182300Z 1900/1924 VRB03KT 2000 BR NSC
TEMPO 1902/1906 0400 FG VV///
BECMG 1908/1910 4000 BR
BECMG 1910/1912 9999 NSW
PROB30
TEMPO 1921/1924 0800 BCFG
ATIS : +33 2 99 67 72 50
Pas de NOTAMs connus pour ce terrain.
2 SIGMETs publiés pour la FIR Brest (LFRR) :
 
Turbulence forte
LFRR SIGMET 2 VALID 190410/190800 LFPW
LFRR BREST FIR/UIR SEV TURB FCST WI N4630 W00130 - N4730 W00145 - N4830 W00015 - N4730 W00015 - N4630 W00130 FL180/280 MOV SE 10KT NC=
Turbulence forte
LFRR SIGMET 1 VALID 190400/190800 LFPW
LFRR BREST FIR/UIR SEV TURB FCST WI N4345 W00230 - N4415 W00500 - N4730 W00145 - N4630 W00145 - N4345 W00230 FL180/300 MOV SE 5KT NC=



MET'MAP, la Météo Aéronautique d'un coup d'oeil ! - Copyright ORBIFLY Décembre 2007 - Disclaimer

ORBIFLY MET'MAP TEAM :

Programmation & Développement : Alexandra Zaïnal
Conception & Développement : Baudouin d'Aumeries
Co-Programmation & Développement : Marc-Olivier Méhu
Soutien technique & logistique : Manuel Goepfert

Contact : metmap@orbifly.com




SOURCES & CREDITS :

   NOAA